createdAt,value
2023-03-11T00:00:41.129Z,98705.52
2023-03-11T00:01:43.392Z,98708.06
2023-03-11T00:02:48.635Z,98706.84
2023-03-11T00:03:51.977Z,98701.12
2023-03-11T00:04:55.518Z,98702.81
2023-03-11T00:06:00.946Z,98702.34
2023-03-11T00:07:09.542Z,98693.34
2023-03-11T00:08:14.953Z,98695.13
2023-03-11T00:09:19.184Z,98692.69
2023-03-11T00:10:30.043Z,98692.91
2023-03-11T00:11:32.677Z,98692.25
2023-03-11T00:12:37.884Z,98686.34
2023-03-11T00:13:42.403Z,98690.28
2023-03-11T00:14:45.769Z,98688.50
2023-03-11T00:15:50.477Z,98685.03
2023-03-11T00:16:53.444Z,98681.19
2023-03-11T00:17:56.207Z,98683.81
2023-03-11T00:18:59.720Z,98689.16
2023-03-11T00:20:04.269Z,98684.75
2023-03-11T00:21:09.655Z,98678.66
2023-03-11T00:22:16.966Z,98679.25
2023-03-11T00:23:21.459Z,98679.91
2023-03-11T00:24:24.510Z,98676.81
2023-03-11T00:25:28.480Z,98681.31
2023-03-11T00:26:31.694Z,98673.19
2023-03-11T00:27:34.896Z,98680.40
2023-03-11T00:28:39.903Z,98673.38
2023-03-11T00:29:45.427Z,98672.90
2023-03-11T00:30:48.690Z,98666.80
2023-03-11T00:31:52.089Z,98664.00
2023-03-11T00:32:56.554Z,98666.93
2023-03-11T00:33:59.889Z,98668.33
2023-03-11T00:35:03.369Z,98672.64
2023-03-11T00:36:09.248Z,98670.77
2023-03-11T00:37:13.716Z,98661.47
2023-03-11T00:38:17.892Z,98655.38
2023-03-11T00:39:27.943Z,98653.59
2023-03-11T00:40:32.261Z,98664.75
2023-03-11T00:41:38.522Z,98655.85
2023-03-11T00:42:42.524Z,98656.97
2023-03-11T00:43:47.279Z,98656.31
2023-03-11T00:44:50.991Z,98651.73
2023-03-11T00:45:54.572Z,98656.79
2023-03-11T00:46:58.026Z,98657.16
2023-03-11T00:48:01.741Z,98656.31
2023-03-11T00:49:06.683Z,98650.81
2023-03-11T00:50:14.055Z,98650.81
2023-03-11T00:51:16.936Z,98642.01
2023-03-11T00:52:20.530Z,98643.78
2023-03-11T00:53:24.779Z,98646.05
2023-03-11T00:54:32.870Z,98642.28
2023-03-11T00:55:36.265Z,98638.81
2023-03-11T00:56:43.522Z,98642.28
2023-03-11T00:57:47.888Z,98634.98
2023-03-11T00:58:50.239Z,98636.10
2023-03-11T00:59:53.330Z,98634.41
2023-03-11T01:00:56.535Z,98638.91
2023-03-11T01:02:00.233Z,98632.10
2023-03-11T01:03:10.529Z,98629.38
2023-03-11T01:04:15.241Z,98625.17
2023-03-11T01:05:21.716Z,98622.55
2023-03-11T01:06:26.120Z,98620.77
2023-03-11T01:07:30.175Z,98619.61
2023-03-11T01:08:33.900Z,98615.89
2023-03-11T01:09:37.020Z,98607.94
2023-03-11T01:10:40.496Z,98615.80
2023-03-11T01:11:43.996Z,98612.24
2023-03-11T01:12:47.210Z,98617.95
2023-03-11T01:13:50.277Z,98614.03
2023-03-11T01:14:54.322Z,98605.33
2023-03-11T01:15:57.449Z,98609.45
2023-03-11T01:17:00.711Z,98605.33
2023-03-11T01:18:03.675Z,98598.39
2023-03-11T01:19:09.365Z,98597.19
2023-03-11T01:20:13.174Z,98596.97
2023-03-11T01:21:18.483Z,98596.78
2023-03-11T01:22:22.699Z,98596.78
2023-03-11T01:23:25.910Z,98595.57
2023-03-11T01:24:29.702Z,98597.26
2023-03-11T01:25:33.116Z,98592.02
2023-03-11T01:26:36.830Z,98584.42
2023-03-11T01:27:39.067Z,98592.78
2023-03-11T01:28:45.287Z,98595.50
2023-03-11T01:29:48.838Z,98594.91
2023-03-11T01:30:52.355Z,98591.45
2023-03-11T01:31:57.902Z,98596.34
2023-03-11T01:33:04.755Z,98590.25
2023-03-11T01:34:10.802Z,98590.25
2023-03-11T01:35:15.940Z,98599.50
2023-03-11T01:36:19.183Z,98595.19
2023-03-11T01:37:22.842Z,98588.08
2023-03-11T01:38:25.291Z,98589.77
2023-03-11T01:39:28.077Z,98591.63
2023-03-11T01:40:36.482Z,98583.98
2023-03-11T01:41:42.537Z,98582.73
2023-03-11T01:42:46.323Z,98578.99
2023-03-11T01:43:52.480Z,98588.16
2023-03-11T01:44:57.496Z,98575.37
2023-03-11T01:46:02.528Z,98570.97
2023-03-11T01:47:13.826Z,98579.11
2023-03-11T01:48:17.259Z,98570.22
2023-03-11T01:49:22.055Z,98565.41
2023-03-11T01:50:27.657Z,98566.44
2023-03-11T01:51:32.860Z,98575.06
2023-03-11T01:52:36.665Z,98565.32
2023-03-11T01:53:40.478Z,98568.87
2023-03-11T01:54:42.833Z,98567.19
2023-03-11T01:55:48.720Z,98557.55
2023-03-11T01:56:53.303Z,98556.27
2023-03-11T01:57:55.650Z,98557.77
2023-03-11T01:58:59.356Z,98560.09
2023-03-11T02:00:07.356Z,98547.65
2023-03-11T02:01:13.798Z,98556.80
2023-03-11T02:02:19.896Z,98552.20
2023-03-11T02:03:34.058Z,98555.77
2023-03-11T02:04:39.646Z,98550.52
2023-03-11T02:05:43.268Z,98552.39
2023-03-11T02:06:47.301Z,98552.70
2023-03-11T02:07:51.040Z,98556.36
2023-03-11T02:08:56.924Z,98550.93
2023-03-11T02:09:59.679Z,98556.63
2023-03-11T02:11:06.630Z,98552.70
2023-03-11T02:12:10.867Z,98557.45
2023-03-11T02:13:14.907Z,98556.80
2023-03-11T02:14:20.577Z,98557.86
2023-03-11T02:15:27.844Z,98548.21
2023-03-11T02:16:34.060Z,98546.13
2023-03-11T02:17:40.105Z,98548.40
2023-03-11T02:18:43.726Z,98550.09
2023-03-11T02:19:57.561Z,98551.45
2023-03-11T02:21:13.590Z,98539.09
2023-03-11T02:22:18.701Z,98547.91
2023-03-11T02:23:25.615Z,98548.38
2023-03-11T02:24:33.817Z,98543.25
2023-03-11T02:25:46.326Z,98537.91
2023-03-11T02:27:03.807Z,98545.59
2023-03-11T02:28:10.248Z,98536.79
2023-03-11T02:29:14.902Z,98540.22
2023-03-11T02:30:19.038Z,98538.81
2023-03-11T02:31:23.609Z,98536.98
2023-03-11T02:32:26.197Z,98539.94
2023-03-11T02:33:35.082Z,98523.45
2023-03-11T02:34:39.957Z,98530.80
2023-03-11T02:35:43.918Z,98535.63
2023-03-11T02:36:47.276Z,98534.88
2023-03-11T02:37:51.611Z,98532.36
2023-03-11T02:38:54.491Z,98533.67
2023-03-11T02:40:01.129Z,98530.98
2023-03-11T02:41:07.142Z,98528.52
2023-03-11T02:42:17.739Z,98526.14
2023-03-11T02:43:23.790Z,98532.03
2023-03-11T02:44:28.101Z,98529.22
2023-03-11T02:45:32.335Z,98526.98
2023-03-11T02:46:42.769Z,98527.48
2023-03-11T02:47:47.492Z,98526.45
2023-03-11T02:48:52.352Z,98523.64
2023-03-11T02:49:58.909Z,98523.37
2023-03-11T02:51:07.091Z,98529.27
2023-03-11T02:52:10.686Z,98520.80
2023-03-11T02:53:13.882Z,98519.77
2023-03-11T02:54:19.089Z,98520.52
2023-03-11T02:55:21.412Z,98516.39
2023-03-11T02:56:27.859Z,98526.70
2023-03-11T02:57:31.359Z,98518.45
2023-03-11T02:58:35.713Z,98517.41
2023-03-11T02:59:39.306Z,98513.95
2023-03-11T03:00:43.299Z,98522.01
2023-03-11T03:01:46.941Z,98511.09
2023-03-11T03:02:52.459Z,98514.66
2023-03-11T03:03:56.617Z,98519.81
2023-03-11T03:05:02.006Z,98519.72
2023-03-11T03:06:05.461Z,98521.72
2023-03-11T03:07:08.335Z,98515.08
2023-03-11T03:08:11.539Z,98516.86
2023-03-11T03:09:15.924Z,98519.86
2023-03-11T03:10:20.196Z,98514.98
2023-03-11T03:11:24.427Z,98518.12
2023-03-11T03:12:28.803Z,98513.72
2023-03-11T03:13:34.386Z,98508.38
2023-03-11T03:14:37.596Z,98503.69
2023-03-11T03:15:41.024Z,98500.13
2023-03-11T03:16:44.200Z,98503.13
2023-03-11T03:17:46.798Z,98503.65
2023-03-11T03:18:50.113Z,98509.41
2023-03-11T03:19:53.762Z,98501.67
2023-03-11T03:20:57.364Z,98498.73
2023-03-11T03:22:00.958Z,98499.89
2023-03-11T03:23:04.593Z,98502.80
2023-03-11T03:24:07.674Z,98494.42
2023-03-11T03:25:11.770Z,98494.28
2023-03-11T03:26:16.200Z,98487.45
2023-03-11T03:27:21.852Z,98484.83
2023-03-11T03:28:25.250Z,98494.09
2023-03-11T03:29:29.594Z,98483.50
2023-03-11T03:30:32.339Z,98483.41
2023-03-11T03:31:36.920Z,98487.06
2023-03-11T03:32:40.583Z,98479.94
2023-03-11T03:33:44.939Z,98483.19
2023-03-11T03:34:48.653Z,98478.78
2023-03-11T03:35:52.256Z,98477.00
2023-03-11T03:36:57.541Z,98479.42
2023-03-11T03:38:02.102Z,98471.45
2023-03-11T03:39:06.317Z,98471.66
2023-03-11T03:40:12.202Z,98468.94
2023-03-11T03:41:16.251Z,98471.75
2023-03-11T03:42:19.873Z,98473.44
2023-03-11T03:43:23.471Z,98470.62
2023-03-11T03:44:28.136Z,98469.03
2023-03-11T03:45:32.092Z,98467.44
2023-03-11T03:46:35.666Z,98461.91
2023-03-11T03:47:41.263Z,98457.18
2023-03-11T03:48:43.914Z,98461.48
2023-03-11T03:49:50.675Z,98455.81
2023-03-11T03:50:55.431Z,98447.53
2023-03-11T03:51:59.239Z,98450.44
2023-03-11T03:53:04.431Z,98446.45
2023-03-11T03:54:07.818Z,98446.69
2023-03-11T03:55:11.851Z,98441.02
2023-03-11T03:56:15.779Z,98440.92
2023-03-11T03:57:19.379Z,98437.26
2023-03-11T03:58:21.840Z,98439.78
2023-03-11T03:59:25.357Z,98436.52
2023-03-11T04:00:30.739Z,98432.41
2023-03-11T04:01:35.608Z,98430.79
2023-03-11T04:02:39.174Z,98433.02
2023-03-11T04:03:41.773Z,98425.70
2023-03-11T04:04:48.017Z,98421.98
2023-03-11T04:05:51.576Z,98422.92
2023-03-11T04:06:58.215Z,98416.31
2023-03-11T04:08:03.101Z,98414.44
2023-03-11T04:09:06.727Z,98416.61
2023-03-11T04:10:12.823Z,98417.48
2023-03-11T04:11:17.169Z,98416.45
2023-03-11T04:12:23.526Z,98413.53
2023-03-11T04:13:27.529Z,98407.11
2023-03-11T04:14:30.885Z,98404.09
2023-03-11T04:15:36.314Z,98406.81
2023-03-11T04:16:39.882Z,98399.39
2023-03-11T04:17:47.822Z,98406.22
2023-03-11T04:18:51.637Z,98395.83
2023-03-11T04:19:56.682Z,98401.38
2023-03-11T04:21:00.314Z,98393.31
2023-03-11T04:22:04.657Z,98396.56
2023-03-11T04:23:08.583Z,98389.64
2023-03-11T04:24:11.026Z,98386.08
2023-03-11T04:25:18.816Z,98390.25
2023-03-11T04:26:22.123Z,98392.12
2023-03-11T04:27:25.835Z,98390.23
2023-03-11T04:28:29.878Z,98396.12
2023-03-11T04:29:32.421Z,98391.52
2023-03-11T04:30:34.810Z,98389.64
2023-03-11T04:31:38.809Z,98385.64
2023-03-11T04:32:42.614Z,98382.91
2023-03-11T04:33:50.088Z,98378.06
2023-03-11T04:34:55.265Z,98375.34
2023-03-11T04:35:58.893Z,98371.78
2023-03-11T04:37:02.499Z,98371.13
2023-03-11T04:38:08.714Z,98373.14
2023-03-11T04:39:12.657Z,98371.36
2023-03-11T04:40:18.533Z,98373.34
2023-03-11T04:41:22.142Z,98372.07
2023-03-11T04:42:25.683Z,98369.34
2023-03-11T04:43:29.495Z,98367.25
2023-03-11T04:44:35.591Z,98368.84
2023-03-11T04:45:44.111Z,98361.18
2023-03-11T04:46:47.648Z,98362.32
2023-03-11T04:47:52.695Z,98361.62
2023-03-11T04:48:56.411Z,98364.24
2023-03-11T04:49:58.964Z,98362.33
2023-03-11T04:51:03.509Z,98353.41
2023-03-11T04:52:06.503Z,98355.30
2023-03-11T04:53:10.210Z,98354.59
2023-03-11T04:54:15.490Z,98360.03
2023-03-11T04:55:20.169Z,98347.56
2023-03-11T04:56:24.699Z,98350.89
2023-03-11T04:57:30.559Z,98344.70
2023-03-11T04:58:33.052Z,98347.02
2023-03-11T04:59:35.742Z,98348.39
2023-03-11T05:00:38.090Z,98344.48
2023-03-11T05:01:44.350Z,98337.66
2023-03-11T05:02:48.647Z,98339.02
2023-03-11T05:03:51.406Z,98339.36
2023-03-11T05:04:55.681Z,98337.69
2023-03-11T05:06:01.254Z,98342.50
2023-03-11T05:07:04.649Z,98327.70
2023-03-11T05:08:07.030Z,98330.08
2023-03-11T05:09:10.752Z,98332.18
2023-03-11T05:10:17.353Z,98319.47
2023-03-11T05:11:20.549Z,98327.80
2023-03-11T05:12:23.216Z,98316.55
2023-03-11T05:13:29.332Z,98315.79
2023-03-11T05:14:32.668Z,98323.95
2023-03-11T05:15:36.141Z,98322.39
2023-03-11T05:16:39.855Z,98317.91
2023-03-11T05:17:43.361Z,98311.83
2023-03-11T05:18:45.911Z,98307.95
2023-03-11T05:19:49.431Z,98302.19
2023-03-11T05:20:55.769Z,98297.03
2023-03-11T05:22:02.486Z,98298.27
2023-03-11T05:23:05.742Z,98298.27
2023-03-11T05:24:10.435Z,98297.02
2023-03-11T05:25:13.944Z,98293.89
2023-03-11T05:26:19.335Z,98300.62
2023-03-11T05:27:23.150Z,98302.30
2023-03-11T05:28:29.364Z,98297.91
2023-03-11T05:29:32.984Z,98290.17
2023-03-11T05:30:36.375Z,98285.53
2023-03-11T05:31:39.991Z,98294.44
2023-03-11T05:32:42.916Z,98294.27
2023-03-11T05:33:49.919Z,98288.16
2023-03-11T05:34:55.000Z,98283.91
2023-03-11T05:36:00.125Z,98276.64
2023-03-11T05:37:06.967Z,98278.31
2023-03-11T05:38:10.740Z,98279.90
2023-03-11T05:39:15.005Z,98285.66
2023-03-11T05:40:20.074Z,98276.43
2023-03-11T05:41:23.555Z,98268.30
2023-03-11T05:42:26.315Z,98269.60
2023-03-11T05:43:29.613Z,98273.22
2023-03-11T05:44:33.551Z,98272.63
2023-03-11T05:45:37.999Z,98269.31
2023-03-11T05:46:41.381Z,98273.03
2023-03-11T05:47:45.390Z,98267.50
2023-03-11T05:48:49.439Z,98264.48
2023-03-11T05:49:52.854Z,98265.98
2023-03-11T05:50:57.073Z,98264.48
2023-03-11T05:52:00.827Z,98263.14
2023-03-11T05:53:03.891Z,98259.83
2023-03-11T05:54:10.226Z,98260.19
2023-03-11T05:55:15.621Z,98264.12
2023-03-11T05:56:20.905Z,98255.75
2023-03-11T05:57:24.902Z,98257.34
2023-03-11T05:58:29.036Z,98257.04
2023-03-11T05:59:33.266Z,98259.77
2023-03-11T06:00:39.225Z,98251.69
2023-03-11T06:01:44.040Z,98252.03
2023-03-11T06:02:47.856Z,98247.55
2023-03-11T06:03:52.082Z,98245.03
2023-03-11T06:04:55.959Z,98241.65
2023-03-11T06:05:59.001Z,98237.61
2023-03-11T06:07:02.507Z,98243.14
2023-03-11T06:08:07.721Z,98238.45
2023-03-11T06:09:17.982Z,98234.05
2023-03-11T06:10:22.144Z,98227.27
2023-03-11T06:11:26.042Z,98234.66
2023-03-11T06:12:30.774Z,98230.17
2023-03-11T06:13:58.628Z,98235.03
2023-03-11T06:15:03.072Z,98235.20
2023-03-11T06:16:07.150Z,98233.64
2023-03-11T06:17:12.055Z,98238.80
2023-03-11T06:18:14.306Z,98233.20
2023-03-11T06:19:18.344Z,98230.00
2023-03-11T06:20:22.477Z,98233.17
2023-03-11T06:21:27.974Z,98231.28
2023-03-11T06:22:33.148Z,98226.66
2023-03-11T06:23:36.637Z,98225.70
2023-03-11T06:24:40.256Z,98229.20
2023-03-11T06:25:44.180Z,98231.59
2023-03-11T06:26:50.085Z,98229.20
2023-03-11T06:27:53.792Z,98234.84
2023-03-11T06:28:57.005Z,98233.20
2023-03-11T06:30:00.213Z,98235.55
2023-03-11T06:31:08.971Z,98242.27
2023-03-11T06:32:13.690Z,98241.98
2023-03-11T06:33:18.390Z,98230.64
2023-03-11T06:34:22.209Z,98227.77
2023-03-11T06:35:24.497Z,98229.61
2023-03-11T06:36:28.026Z,98240.92
2023-03-11T06:37:31.733Z,98235.33
2023-03-11T06:38:37.346Z,98243.70
2023-03-11T06:39:40.720Z,98236.56
2023-03-11T06:40:45.561Z,98236.45
2023-03-11T06:41:48.753Z,98228.56
2023-03-11T06:42:51.945Z,98229.98
2023-03-11T06:43:55.776Z,98229.19
2023-03-11T06:45:00.018Z,98232.95
2023-03-11T06:46:06.971Z,98225.47
2023-03-11T06:47:10.992Z,98219.64
2023-03-11T06:48:13.961Z,98217.84
2023-03-11T06:49:16.295Z,98216.37
2023-03-11T06:50:19.933Z,98203.98
2023-03-11T06:51:22.623Z,98205.19
2023-03-11T06:52:27.916Z,98205.57
2023-03-11T06:53:31.799Z,98208.78
2023-03-11T06:54:36.568Z,98193.09
2023-03-11T06:55:40.288Z,98193.63
2023-03-11T06:56:44.144Z,98197.07
2023-03-11T06:57:47.813Z,98195.36
2023-03-11T06:58:51.871Z,98196.65
2023-03-11T06:59:55.347Z,98186.34
2023-03-11T07:01:04.013Z,98182.80
2023-03-11T07:02:07.572Z,98190.05
2023-03-11T07:03:10.971Z,98190.71
2023-03-11T07:04:14.522Z,98180.00
2023-03-11T07:05:19.498Z,98184.42
2023-03-11T07:06:24.738Z,98185.27
2023-03-11T07:07:30.442Z,98185.22
2023-03-11T07:08:34.040Z,98180.37
2023-03-11T07:09:36.386Z,98177.73
2023-03-11T07:10:40.224Z,98173.05
2023-03-11T07:11:43.930Z,98167.64
2023-03-11T07:12:49.477Z,98172.08
2023-03-11T07:13:52.705Z,98168.03
2023-03-11T07:14:57.075Z,98168.91
2023-03-11T07:17:27.570Z,98170.27
2023-03-11T07:18:31.309Z,98171.66
2023-03-11T07:19:34.770Z,98163.48
2023-03-11T07:20:38.012Z,98167.59
2023-03-11T07:21:41.573Z,98173.28
2023-03-11T07:22:44.774Z,98166.98
2023-03-11T07:23:49.715Z,98163.36
2023-03-11T07:24:53.251Z,98166.26
2023-03-11T07:25:56.130Z,98170.44
2023-03-11T07:26:59.657Z,98160.20
2023-03-11T07:28:03.337Z,98159.62
2023-03-11T07:29:09.230Z,98155.31
2023-03-11T07:30:13.062Z,98153.52
2023-03-11T07:31:20.272Z,98157.81
2023-03-11T07:32:23.746Z,98149.82
2023-03-11T07:33:27.975Z,98159.28
2023-03-11T07:34:31.584Z,98147.57
2023-03-11T07:35:37.439Z,98148.41
2023-03-11T07:36:42.256Z,98148.72
2023-03-11T07:37:45.651Z,98142.55
2023-03-11T07:38:49.421Z,98144.25
2023-03-11T07:39:54.651Z,98136.64
2023-03-11T07:41:01.180Z,98142.98
2023-03-11T07:42:05.526Z,98136.94
2023-03-11T07:43:13.097Z,98133.67
2023-03-11T07:44:19.256Z,98126.18
2023-03-11T07:45:22.613Z,98144.89
2023-03-11T07:46:27.851Z,98130.28
2023-03-11T07:47:32.491Z,98126.30
2023-03-11T07:48:37.406Z,98134.92
2023-03-11T07:49:41.229Z,98124.63
2023-03-11T07:50:43.607Z,98124.05
2023-03-11T07:51:47.091Z,98120.02
2023-03-11T07:52:50.807Z,98124.37
2023-03-11T07:53:55.151Z,98116.39
2023-03-11T07:54:57.929Z,98114.28
2023-03-11T07:56:00.778Z,98106.94
2023-03-11T07:57:04.300Z,98098.63
2023-03-11T07:58:08.790Z,98105.27
2023-03-11T07:59:12.136Z,98093.83
2023-03-11T08:00:16.282Z,98089.33
2023-03-11T08:01:23.753Z,98096.77
2023-03-11T08:02:28.664Z,98085.61
2023-03-11T08:03:31.936Z,98089.84
2023-03-11T08:04:39.417Z,98093.70
2023-03-11T08:05:42.787Z,98091.59
2023-03-11T08:06:47.663Z,98092.23
2023-03-11T08:07:52.720Z,98089.80
2023-03-11T08:08:56.265Z,98080.84
2023-03-11T08:09:59.579Z,98080.27
2023-03-11T08:11:05.458Z,98068.67
2023-03-11T08:12:10.708Z,98079.64
2023-03-11T08:13:14.103Z,98069.97
2023-03-11T08:14:18.549Z,98062.42
2023-03-11T08:15:21.855Z,98060.00
2023-03-11T08:16:26.340Z,98048.27
2023-03-11T08:17:29.628Z,98040.25
2023-03-11T08:18:35.411Z,98047.80
2023-03-11T08:19:38.376Z,98041.17
2023-03-11T08:20:41.369Z,98046.69
2023-03-11T08:21:45.073Z,98047.07
2023-03-11T08:22:57.798Z,98047.02
2023-03-11T08:23:53.226Z,98047.48
2023-03-11T08:28:57.692Z,98028.42
2023-03-11T08:30:02.019Z,98033.52
2023-03-11T08:31:14.701Z,98035.81
2023-03-11T08:32:19.661Z,98020.61
2023-03-11T08:33:22.811Z,98019.83
2023-03-11T08:34:28.390Z,98007.23
2023-03-11T08:35:32.088Z,98006.04
2023-03-11T08:36:35.078Z,97997.41
2023-03-11T08:37:40.371Z,97997.32
2023-03-11T08:38:43.559Z,97995.05
2023-03-11T08:39:46.108Z,97998.99
2023-03-11T08:40:50.323Z,97993.53
2023-03-11T08:41:52.702Z,97992.82
2023-03-11T08:42:57.381Z,97999.84
2023-03-11T08:43:59.718Z,97999.26
2023-03-11T08:45:03.794Z,97991.02
2023-03-11T08:46:08.905Z,98002.77
2023-03-11T08:47:15.445Z,98003.53
2023-03-11T08:48:19.076Z,98002.11
2023-03-11T08:49:22.565Z,97989.82
2023-03-11T08:50:27.153Z,97987.77
2023-03-11T08:51:32.397Z,97989.27
2023-03-11T08:52:37.124Z,97992.27
2023-03-11T08:53:40.880Z,97990.25
2023-03-11T08:54:44.066Z,97996.87
2023-03-11T08:55:47.574Z,98000.55
2023-03-11T08:56:50.787Z,97993.98
2023-03-11T08:57:56.069Z,98001.64
2023-03-11T08:59:01.420Z,97992.66
2023-03-11T09:00:07.013Z,98000.05
2023-03-11T09:01:11.352Z,97992.77
2023-03-11T09:02:14.761Z,97989.31
2023-03-11T09:03:18.257Z,97994.78
2023-03-11T09:04:21.866Z,97997.84
2023-03-11T09:05:24.529Z,97988.58
2023-03-11T09:06:30.655Z,97993.66
2023-03-11T09:07:33.422Z,97987.19
2023-03-11T09:08:36.419Z,97986.42
2023-03-11T09:09:39.532Z,97989.35
2023-03-11T09:10:41.955Z,97987.48
2023-03-11T09:11:46.517Z,97989.16
2023-03-11T09:12:54.199Z,97984.53
2023-03-11T09:13:58.919Z,97986.81
2023-03-11T09:15:02.161Z,97978.16
2023-03-11T09:16:06.265Z,97973.97
2023-03-11T09:17:08.990Z,97965.08
2023-03-11T09:18:13.199Z,97965.91
2023-03-11T09:19:17.442Z,97962.22
2023-03-11T09:20:22.391Z,97961.35
2023-03-11T09:21:25.571Z,97960.77
2023-03-11T09:22:28.359Z,97962.22
2023-03-11T09:23:31.964Z,97941.75
2023-03-11T09:24:36.322Z,97945.47
2023-03-11T09:25:39.811Z,97946.56
2023-03-11T09:26:42.929Z,97945.20
2023-03-11T09:27:46.506Z,97943.80
2023-03-11T09:28:51.351Z,97953.77
2023-03-11T09:29:54.665Z,97933.74
2023-03-11T09:30:58.056Z,97937.27
2023-03-11T09:32:02.335Z,97930.92
2023-03-11T09:33:05.276Z,97929.25
2023-03-11T09:34:08.504Z,97926.88
2023-03-11T09:35:12.291Z,97926.54
2023-03-11T09:36:17.478Z,97928.08
2023-03-11T09:37:19.652Z,97931.11
2023-03-11T09:38:23.647Z,97924.73
2023-03-11T09:39:29.168Z,97933.74
2023-03-11T09:40:34.521Z,97923.25
2023-03-11T09:41:58.732Z,97919.34
2023-03-11T09:43:03.152Z,97928.57
2023-03-11T09:44:11.126Z,97924.63
2023-03-11T09:45:18.123Z,97925.77
2023-03-11T09:46:40.662Z,97922.29
2023-03-11T09:47:52.665Z,97929.13
2023-03-11T09:49:10.084Z,97920.27
2023-03-11T09:50:17.026Z,97917.28
2023-03-11T09:51:23.079Z,97916.96
2023-03-11T09:52:30.965Z,97917.43
2023-03-11T09:53:40.095Z,97914.38
2023-03-11T09:54:49.052Z,97904.82
2023-03-11T09:56:00.564Z,97893.83
2023-03-11T09:57:06.368Z,97896.97
2023-03-11T09:58:28.049Z,97880.39
2023-03-11T09:59:33.119Z,97882.19
2023-03-11T10:00:36.784Z,97869.88
2023-03-11T10:01:46.541Z,97893.05
2023-03-11T10:02:50.879Z,97881.58
2023-03-11T10:03:58.525Z,97874.64
2023-03-11T10:05:02.861Z,97870.46
2023-03-11T10:06:08.353Z,97877.30
2023-03-11T10:07:14.768Z,97872.72
2023-03-11T10:08:29.566Z,97876.64
2023-03-11T10:09:42.264Z,97867.58
2023-03-11T10:10:47.352Z,97870.67
2023-03-11T10:11:54.290Z,97858.72
2023-03-11T10:13:02.376Z,97871.50
2023-03-11T10:14:22.818Z,97858.27
2023-03-11T10:15:45.633Z,97862.62
2023-03-11T10:16:50.750Z,97861.36
2023-03-11T10:18:01.132Z,97873.55
2023-03-11T10:19:06.402Z,97885.59
2023-03-11T10:20:21.775Z,97872.72
2023-03-11T10:21:26.029Z,97868.94
2023-03-11T10:22:40.197Z,97858.40
2023-03-11T10:23:45.262Z,97851.57
2023-03-11T10:25:05.165Z,97848.09
2023-03-11T10:26:17.018Z,97838.15
2023-03-11T10:27:25.904Z,97842.83
2023-03-11T10:28:31.148Z,97838.77
2023-03-11T10:29:39.146Z,97832.05
2023-03-11T10:30:58.855Z,97826.38
2023-03-11T10:32:13.520Z,97823.73
2023-03-11T10:33:22.108Z,97824.75
2023-03-11T10:34:42.593Z,97814.60
2023-03-11T10:35:47.684Z,97815.17
2023-03-11T10:36:53.129Z,97819.30
2023-03-11T10:38:01.444Z,97808.93
2023-03-11T10:39:05.141Z,97808.93
2023-03-11T10:40:11.890Z,97811.56
2023-03-11T10:41:33.990Z,97808.94
2023-03-11T10:42:39.800Z,97807.83
2023-03-11T10:43:43.813Z,97805.06
2023-03-11T10:44:46.178Z,97809.23
2023-03-11T10:45:51.759Z,97810.47
2023-03-11T10:46:55.074Z,97800.89
2023-03-11T10:48:02.334Z,97797.98
2023-03-11T10:49:06.676Z,97803.26
2023-03-11T10:50:12.165Z,97804.93
2023-03-11T10:51:28.392Z,97807.29
2023-03-11T10:52:31.713Z,97794.67
2023-03-11T10:53:35.995Z,97793.27
2023-03-11T10:54:42.046Z,97788.53
2023-03-11T10:55:53.919Z,97788.80
2023-03-11T10:57:00.653Z,97791.30
2023-03-11T10:58:08.648Z,97779.52
2023-03-11T10:59:25.313Z,97775.75
2023-03-11T11:00:30.919Z,97779.81
2023-03-11T11:01:33.711Z,97777.70
2023-03-11T11:02:43.651Z,97777.17
2023-03-11T11:03:48.014Z,97778.00
2023-03-11T11:04:53.405Z,97771.33
2023-03-11T11:06:01.491Z,97762.45
2023-03-11T11:07:24.762Z,97767.45
2023-03-11T11:08:28.570Z,97768.14
2023-03-11T11:09:32.695Z,97767.70
2023-03-11T11:10:37.353Z,97761.06
2023-03-11T11:11:40.536Z,97763.98
2023-03-11T11:12:56.276Z,97757.45
2023-03-11T11:14:01.796Z,97755.09
2023-03-11T11:15:06.727Z,97755.09
2023-03-11T11:16:20.877Z,97754.53
2023-03-11T11:17:25.756Z,97749.95
2023-03-11T11:18:30.718Z,97741.48
2023-03-11T11:19:33.926Z,97742.99
2023-03-11T11:20:38.561Z,97736.05
2023-03-11T11:21:44.261Z,97746.02
2023-03-11T11:22:54.438Z,97740.07
2023-03-11T11:24:08.189Z,97728.83
2023-03-11T11:25:13.722Z,97727.72
2023-03-11T11:26:22.022Z,97727.86
2023-03-11T11:27:28.539Z,97723.23
2023-03-11T11:28:33.207Z,97727.13
2023-03-11T11:29:38.277Z,97718.66
2023-03-11T11:30:54.340Z,97724.34
2023-03-11T11:31:59.481Z,97717.36
2023-03-11T11:33:17.284Z,97721.91
2023-03-11T11:34:23.118Z,97724.30
2023-03-11T11:35:27.028Z,97717.91
2023-03-11T11:36:32.807Z,97709.58
2023-03-11T11:37:38.822Z,97710.45
2023-03-11T11:38:44.121Z,97711.94
2023-03-11T11:39:59.258Z,97706.01
2023-03-11T11:41:04.372Z,97706.29
2023-03-11T11:42:08.462Z,97708.09
2023-03-11T11:43:17.740Z,97697.40
2023-03-11T11:44:24.279Z,97695.04
2023-03-11T11:45:45.362Z,97699.59
2023-03-11T11:46:53.122Z,97691.70
2023-03-11T11:47:58.213Z,97691.70
2023-03-11T11:49:05.473Z,97687.22
2023-03-11T11:50:13.657Z,97686.25
2023-03-11T11:51:23.248Z,97685.87
2023-03-11T11:52:29.766Z,97678.33
2023-03-11T11:53:50.717Z,97678.52
2023-03-11T11:54:56.893Z,97671.56
2023-03-11T11:56:01.273Z,97671.98
2023-03-11T11:57:05.405Z,97677.95
2023-03-11T11:58:09.956Z,97671.84
2023-03-11T11:59:18.401Z,97669.72
2023-03-11T12:00:24.887Z,97675.27
2023-03-11T12:01:36.277Z,97673.59
2023-03-11T12:02:46.118Z,97672.81
2023-03-11T12:04:05.813Z,97673.19
2023-03-11T12:05:11.253Z,97671.05
2023-03-11T12:06:31.782Z,97666.80
2023-03-11T12:07:37.112Z,97671.70
2023-03-11T12:08:44.179Z,97670.81
2023-03-11T12:09:49.344Z,97667.61
2023-03-11T12:11:00.282Z,97670.77
2023-03-11T12:12:11.069Z,97661.18
2023-03-11T12:13:24.611Z,97666.16
2023-03-11T12:14:31.868Z,97671.17
2023-03-11T12:15:55.164Z,97658.86
2023-03-11T12:17:01.981Z,97670.81
2023-03-11T12:18:09.320Z,97670.20
2023-03-11T12:19:15.250Z,97661.18
2023-03-11T12:20:29.218Z,97660.48
2023-03-11T12:21:36.489Z,97660.12
2023-03-11T12:23:00.220Z,97655.52
2023-03-11T12:24:08.487Z,97662.61
2023-03-11T12:25:18.197Z,97654.09
2023-03-11T12:26:22.244Z,97660.34
2023-03-11T12:27:28.383Z,97653.26
2023-03-11T12:28:42.513Z,97662.84
2023-03-11T12:29:47.291Z,97657.28
2023-03-11T12:30:52.295Z,97653.12
2023-03-11T12:31:57.078Z,97653.66
2023-03-11T12:33:05.104Z,97661.03
2023-03-11T12:34:10.053Z,97659.09
2023-03-11T12:35:22.283Z,97656.02
2023-03-11T12:36:33.202Z,97646.58
2023-03-11T12:37:36.142Z,97654.41
2023-03-11T12:38:40.376Z,97653.37
2023-03-11T12:39:46.808Z,97648.09
2023-03-11T12:41:00.756Z,97651.28
2023-03-11T12:42:17.634Z,97652.45
2023-03-11T12:43:32.085Z,97647.31
2023-03-11T12:44:35.401Z,97648.08
2023-03-11T12:45:49.776Z,97647.79
2023-03-11T12:47:02.857Z,97649.20
2023-03-11T12:48:25.427Z,97651.70
2023-03-11T12:49:35.519Z,97655.03
2023-03-11T12:50:40.570Z,97647.03
2023-03-11T12:51:46.057Z,97649.16
2023-03-11T12:52:53.372Z,97641.60
2023-03-11T12:53:57.024Z,97648.19
2023-03-11T12:55:01.560Z,97639.87
2023-03-11T12:56:21.996Z,97637.08